createdAt,value
2022-08-23T00:01:26.282Z,35.50
2022-08-23T00:03:58.466Z,33.47
2022-08-23T00:06:25.766Z,27.52
2022-08-23T00:08:56.245Z,30.40
2022-08-23T00:11:40.321Z,27.40
2022-08-23T00:14:16.120Z,32.22
2022-08-23T00:19:13.093Z,27.05
2022-08-23T00:21:40.914Z,29.95
2022-08-23T00:24:08.583Z,28.95
2022-08-23T00:27:00.030Z,30.30
2022-08-23T00:29:35.400Z,31.33
2022-08-23T00:32:02.619Z,30.55
2022-08-23T00:34:29.513Z,27.17
2022-08-23T00:36:56.885Z,28.30
2022-08-23T00:39:23.711Z,27.67
2022-08-23T00:41:51.324Z,30.73
2022-08-23T00:44:51.807Z,26.92
2022-08-23T00:47:39.715Z,25.75
2022-08-23T00:50:23.384Z,26.55
2022-08-23T00:53:05.221Z,26.52
2022-08-23T00:55:32.829Z,25.00
2022-08-23T00:58:00.580Z,26.08
2022-08-23T01:00:31.018Z,29.35
2022-08-23T01:02:57.814Z,28.35
2022-08-23T01:05:35.605Z,26.05
2022-08-23T01:08:02.531Z,27.48
2022-08-23T01:10:49.897Z,27.58
2022-08-23T01:13:30.118Z,26.10
2022-08-23T01:16:03.718Z,27.45
2022-08-23T01:18:31.534Z,30.95
2022-08-23T01:21:10.815Z,25.60
2022-08-23T01:23:42.423Z,26.65
2022-08-23T01:26:11.475Z,25.33
2022-08-23T01:28:40.936Z,24.77
2022-08-23T01:31:14.092Z,25.35
2022-08-23T01:33:42.144Z,25.95
2022-08-23T01:36:12.086Z,22.95
2022-08-23T01:38:38.910Z,28.83
2022-08-23T01:41:06.956Z,25.75
2022-08-23T01:43:34.419Z,25.77
2022-08-23T01:46:12.176Z,27.42
2022-08-23T01:48:39.490Z,14.52
2022-08-23T01:51:06.135Z,25.40
2022-08-23T01:53:32.840Z,24.85
2022-08-23T01:56:01.837Z,24.10
2022-08-23T01:58:31.418Z,23.88
2022-08-23T02:00:58.168Z,27.15
2022-08-23T02:03:25.195Z,23.02
2022-08-23T02:08:37.836Z,26.92
2022-08-23T02:11:09.491Z,24.33
2022-08-23T02:13:36.306Z,26.42
2022-08-23T02:16:03.196Z,23.23
2022-08-23T02:18:30.493Z,24.40
2022-08-23T02:20:57.283Z,24.17
2022-08-23T02:23:24.199Z,29.25
2022-08-23T02:25:54.021Z,28.45
2022-08-23T02:28:22.355Z,25.40
2022-08-23T02:30:50.229Z,27.30
2022-08-23T02:33:17.407Z,26.27
2022-08-23T02:35:44.591Z,20.73
2022-08-23T02:38:12.538Z,20.60
2022-08-23T02:40:40.296Z,24.23
2022-08-23T02:43:07.074Z,19.73
2022-08-23T02:45:33.954Z,23.15
2022-08-23T02:48:00.667Z,24.40
2022-08-23T02:50:27.589Z,27.33
2022-08-23T02:52:55.079Z,22.00
2022-08-23T02:55:21.800Z,22.33
2022-08-23T02:57:48.384Z,24.13
2022-08-23T03:00:24.956Z,18.33
2022-08-23T03:02:51.778Z,22.30
2022-08-23T03:05:18.530Z,27.90
2022-08-23T03:07:45.425Z,25.10
2022-08-23T03:10:12.656Z,28.52
2022-08-23T03:12:39.545Z,27.38
2022-08-23T03:15:07.065Z,24.83
2022-08-23T03:17:34.590Z,30.00
2022-08-23T03:20:01.113Z,27.45
2022-08-23T03:22:27.660Z,26.13
2022-08-23T03:24:54.185Z,26.85
2022-08-23T03:27:20.711Z,25.88
2022-08-23T03:29:47.403Z,30.20
2022-08-23T03:32:15.427Z,28.58
2022-08-23T03:34:42.471Z,25.55
2022-08-23T03:37:09.102Z,26.48
2022-08-23T03:39:35.980Z,25.45
2022-08-23T03:42:02.593Z,23.15
2022-08-23T03:44:29.155Z,27.17
2022-08-23T03:46:55.735Z,28.25
2022-08-23T03:49:22.430Z,21.98
2022-08-23T03:51:48.941Z,22.50
2022-08-23T03:54:15.588Z,22.13
2022-08-23T03:57:03.027Z,23.88
2022-08-23T03:59:32.594Z,22.60
2022-08-23T04:01:59.596Z,20.83
2022-08-23T04:04:26.211Z,23.88
2022-08-23T04:06:52.921Z,22.45
2022-08-23T04:09:19.910Z,19.98
2022-08-23T04:11:46.712Z,24.17
2022-08-23T04:14:13.239Z,20.90
2022-08-23T04:16:40.445Z,19.98
2022-08-23T04:19:09.880Z,22.88
2022-08-23T04:21:38.201Z,22.30
2022-08-23T04:24:04.922Z,21.73
2022-08-23T04:26:31.574Z,20.33
2022-08-23T04:28:58.711Z,18.77
2022-08-23T04:31:29.143Z,24.75
2022-08-23T04:39:01.088Z,19.13
2022-08-23T04:41:46.251Z,19.83
2022-08-23T04:44:14.829Z,11.35
2022-08-23T04:46:43.678Z,12.77
2022-08-23T04:49:12.150Z,18.63
2022-08-23T04:51:38.977Z,21.95
2022-08-23T04:54:07.829Z,20.23
2022-08-23T04:56:35.475Z,19.67
2022-08-23T04:59:03.098Z,19.15
2022-08-23T05:01:29.709Z,18.55
2022-08-23T05:03:57.163Z,23.27
2022-08-23T05:06:24.564Z,22.88
2022-08-23T05:08:51.183Z,20.02
2022-08-23T05:11:19.080Z,20.27
2022-08-23T05:13:45.593Z,24.38
2022-08-23T05:16:12.409Z,23.02
2022-08-23T05:18:39.016Z,21.65
2022-08-23T05:21:05.859Z,21.33
2022-08-23T05:23:32.909Z,19.50
2022-08-23T05:25:59.634Z,18.70
2022-08-23T05:28:32.715Z,18.70
2022-08-23T05:31:18.442Z,18.17
2022-08-23T05:33:46.271Z,18.38
2022-08-23T05:36:15.086Z,23.83
2022-08-23T05:38:42.457Z,16.10
2022-08-23T05:41:09.672Z,17.17
2022-08-23T05:43:36.786Z,19.48
2022-08-23T05:46:12.834Z,15.57
2022-08-23T05:48:43.826Z,17.15
2022-08-23T05:51:18.934Z,16.75
2022-08-23T05:53:46.815Z,19.65
2022-08-23T05:56:22.962Z,16.08
2022-08-23T05:58:52.155Z,21.05
2022-08-23T06:01:20.791Z,16.95
2022-08-23T06:03:49.920Z,16.75
2022-08-23T06:06:18.139Z,17.20
2022-08-23T06:08:48.702Z,15.93
2022-08-23T06:11:21.321Z,18.02
2022-08-23T06:13:54.721Z,15.93
2022-08-23T06:16:27.026Z,15.40
2022-08-23T06:18:55.997Z,21.38
2022-08-23T06:21:23.630Z,18.08
2022-08-23T06:23:50.649Z,19.25
2022-08-23T06:26:18.583Z,15.82
2022-08-23T06:28:50.939Z,17.80
2022-08-23T06:31:41.696Z,14.95
2022-08-23T06:34:10.627Z,17.00
2022-08-23T06:36:37.362Z,17.65
2022-08-23T06:39:06.227Z,20.00
2022-08-23T06:41:33.702Z,20.77
2022-08-23T06:44:00.303Z,18.85
2022-08-23T06:46:29.387Z,16.30
2022-08-23T06:48:57.715Z,19.98
2022-08-23T06:51:28.521Z,18.20
2022-08-23T06:53:57.255Z,20.00
2022-08-23T06:56:29.849Z,17.08
2022-08-23T06:58:56.986Z,17.58
2022-08-23T07:01:46.770Z,28.67
2022-08-23T07:04:16.005Z,23.13
2022-08-23T07:06:42.712Z,21.25
2022-08-23T07:09:09.251Z,21.77
2022-08-23T07:11:36.756Z,19.80
2022-08-23T07:14:10.509Z,17.60
2022-08-23T07:16:40.487Z,23.02
2022-08-23T07:19:09.161Z,15.75
2022-08-23T07:21:36.447Z,18.60
2022-08-23T07:24:03.930Z,15.68
2022-08-23T07:26:31.957Z,16.73
2022-08-23T07:28:58.491Z,20.83
2022-08-23T07:31:30.535Z,19.02
2022-08-23T07:34:05.395Z,22.08
2022-08-23T07:36:33.598Z,25.38
2022-08-23T07:39:00.973Z,19.05
2022-08-23T07:41:32.810Z,26.17
2022-08-23T07:44:03.900Z,20.77
2022-08-23T07:46:32.988Z,16.85
2022-08-23T07:49:01.029Z,19.92
2022-08-23T07:51:29.463Z,21.17
2022-08-23T07:53:56.255Z,19.73
2022-08-23T07:56:22.808Z,21.48
2022-08-23T07:58:50.303Z,17.33
2022-08-23T08:01:27.307Z,22.98
2022-08-23T08:03:55.690Z,23.13
2022-08-23T08:06:28.771Z,22.25
2022-08-23T08:08:56.738Z,18.30
2022-08-23T08:11:30.769Z,20.17
2022-08-23T08:14:03.426Z,20.75
2022-08-23T08:16:33.900Z,22.50
2022-08-23T08:19:02.254Z,22.17
2022-08-23T08:21:29.290Z,19.88
2022-08-23T08:23:57.529Z,21.08
2022-08-23T08:26:25.415Z,19.10
2022-08-23T08:28:52.512Z,21.70
2022-08-23T08:31:19.236Z,17.27
2022-08-23T08:33:45.908Z,18.45
2022-08-23T08:36:41.227Z,16.05
2022-08-23T08:39:11.550Z,16.15
2022-08-23T08:41:42.128Z,17.83
2022-08-23T08:44:22.491Z,13.75
2022-08-23T08:46:53.314Z,14.18
2022-08-23T08:49:38.590Z,12.90
2022-08-23T08:52:10.916Z,12.40
2022-08-23T08:54:38.562Z,15.73
2022-08-23T08:57:08.081Z,13.32
2022-08-23T08:59:58.569Z,12.15
2022-08-23T09:02:33.494Z,12.50
2022-08-23T09:05:04.754Z,12.88
2022-08-23T09:07:42.447Z,12.90
2022-08-23T09:10:19.410Z,11.60
2022-08-23T09:13:22.384Z,12.85
2022-08-23T09:16:28.814Z,15.77
2022-08-23T09:18:55.595Z,13.93
2022-08-23T09:21:22.602Z,12.50
2022-08-23T09:24:00.486Z,11.95
2022-08-23T09:26:32.534Z,13.80
2022-08-23T09:29:02.837Z,12.63
2022-08-23T09:31:44.969Z,12.23
2022-08-23T09:34:18.907Z,12.05
2022-08-23T09:36:45.666Z,13.77
2022-08-23T09:39:30.533Z,11.90
2022-08-23T09:41:58.196Z,15.50
2022-08-23T09:44:40.076Z,12.05
2022-08-23T09:47:15.067Z,13.77
2022-08-23T09:49:43.590Z,13.02
2022-08-23T09:52:32.467Z,11.45
2022-08-23T09:55:04.281Z,12.23
2022-08-23T09:57:33.361Z,12.30
2022-08-23T10:00:27.845Z,13.30
2022-08-23T10:02:57.632Z,13.10
2022-08-23T10:05:38.225Z,12.38
2022-08-23T10:08:08.852Z,14.00
2022-08-23T10:10:51.065Z,13.05
2022-08-23T10:13:18.234Z,11.38
2022-08-23T10:15:56.440Z,11.63
2022-08-23T10:21:07.939Z,12.13
2022-08-23T10:24:20.715Z,11.15
2022-08-23T10:27:27.724Z,10.93
2022-08-23T10:30:07.663Z,10.52
2022-08-23T10:33:05.623Z,11.63
2022-08-23T10:36:02.064Z,11.18
2022-08-23T10:38:48.397Z,9.32
2022-08-23T10:41:21.868Z,13.13
2022-08-23T10:44:12.973Z,10.57
2022-08-23T10:46:53.000Z,9.75
2022-08-23T10:49:20.071Z,10.55
2022-08-23T10:51:51.947Z,9.48
2022-08-23T10:54:59.849Z,10.13
2022-08-23T10:57:40.090Z,10.88
2022-08-23T11:00:11.905Z,9.45
2022-08-23T11:02:53.253Z,9.55
2022-08-23T11:05:22.339Z,9.80
2022-08-23T11:08:07.723Z,8.48
2022-08-23T11:10:40.199Z,11.80
2022-08-23T11:13:18.795Z,12.68
2022-08-23T11:15:55.447Z,10.35
2022-08-23T11:18:33.968Z,11.20
2022-08-23T11:21:18.850Z,9.30
2022-08-23T11:23:54.693Z,8.57
2022-08-23T11:26:27.702Z,10.30
2022-08-23T11:29:17.294Z,10.30
2022-08-23T11:31:58.586Z,9.95
2022-08-23T11:34:27.281Z,8.32
2022-08-23T11:37:24.345Z,10.77
2022-08-23T11:40:00.074Z,8.73
2022-08-23T11:42:39.881Z,7.78
2022-08-23T11:45:46.604Z,8.35
2022-08-23T11:48:43.947Z,9.40
2022-08-23T11:51:38.527Z,9.85
2022-08-23T11:54:43.278Z,7.13
2022-08-23T11:57:54.724Z,8.23
2022-08-23T12:00:32.087Z,8.80
2022-08-23T12:03:06.201Z,7.95
2022-08-23T12:05:39.149Z,8.75
2022-08-23T12:08:06.139Z,8.02
2022-08-23T12:10:41.349Z,10.65
2022-08-23T12:13:19.943Z,9.80
2022-08-23T12:16:16.909Z,8.52
2022-08-23T12:18:53.689Z,8.27
2022-08-23T12:21:33.031Z,10.40
2022-08-23T12:24:14.460Z,9.38
2022-08-23T12:26:58.264Z,10.27
2022-08-23T12:29:30.474Z,9.82
2022-08-23T12:32:21.569Z,11.73
2022-08-23T12:35:07.274Z,11.48
2022-08-23T12:38:02.773Z,11.32
2022-08-23T12:40:37.239Z,13.43
2022-08-23T12:43:22.573Z,13.10
2022-08-23T12:45:58.961Z,15.15
2022-08-23T12:48:28.914Z,14.57
2022-08-23T12:51:08.287Z,14.15
2022-08-23T12:53:44.547Z,12.45
2022-08-23T12:56:18.593Z,13.93
2022-08-23T12:59:06.796Z,14.15
2022-08-23T13:01:38.956Z,13.10
2022-08-23T13:04:10.964Z,12.60
2022-08-23T13:06:43.739Z,13.30
2022-08-23T13:12:20.392Z,14.23
2022-08-23T13:14:50.682Z,13.52
2022-08-23T13:17:26.338Z,17.15
2022-08-23T13:22:26.659Z,14.07
2022-08-23T13:25:28.666Z,15.30
2022-08-23T13:27:55.005Z,13.73
2022-08-23T13:30:26.842Z,18.35
2022-08-23T13:33:13.261Z,21.40
2022-08-23T13:35:48.614Z,17.83
2022-08-23T13:38:26.007Z,16.45
2022-08-23T13:41:10.541Z,21.23
2022-08-23T13:43:49.078Z,18.98
2022-08-23T13:46:19.354Z,19.88
2022-08-23T13:49:00.945Z,19.88
2022-08-23T13:51:37.094Z,22.15
2022-08-23T13:54:10.510Z,19.20
2022-08-23T13:56:42.775Z,19.45
2022-08-23T13:59:31.911Z,22.35
2022-08-23T14:02:05.102Z,22.15
2022-08-23T14:04:31.615Z,18.90
2022-08-23T14:06:58.227Z,20.67
2022-08-23T14:09:24.971Z,19.80
2022-08-23T14:11:55.198Z,21.10
2022-08-23T14:14:22.064Z,18.80
2022-08-23T14:16:48.717Z,20.38
2022-08-23T14:19:16.475Z,20.23
2022-08-23T14:24:37.173Z,23.83
2022-08-23T14:27:04.332Z,25.60
2022-08-23T14:29:31.149Z,20.13
2022-08-23T14:31:59.213Z,21.13
2022-08-23T14:34:30.399Z,21.55
2022-08-23T14:39:45.007Z,19.45
2022-08-23T14:42:16.757Z,17.50
2022-08-23T14:44:43.344Z,14.93
2022-08-23T14:47:09.882Z,15.07
2022-08-23T14:49:36.871Z,19.05
2022-08-23T14:52:04.347Z,17.67
2022-08-23T14:54:31.309Z,14.38
2022-08-23T14:56:58.012Z,15.20
2022-08-23T14:59:24.756Z,18.45
2022-08-23T15:01:53.349Z,14.20
2022-08-23T15:04:23.095Z,16.17
2022-08-23T15:07:16.223Z,17.85
2022-08-23T15:09:38.365Z,14.77
2022-08-23T15:14:52.664Z,16.63
2022-08-23T15:17:19.065Z,15.88
2022-08-23T15:19:45.579Z,17.35
2022-08-23T15:22:21.386Z,14.85
2022-08-23T15:24:49.646Z,15.70
2022-08-23T15:27:17.888Z,16.25
2022-08-23T15:29:44.431Z,15.85
2022-08-23T15:32:11.047Z,15.70
2022-08-23T15:34:40.228Z,15.32
2022-08-23T15:37:13.989Z,15.80
2022-08-23T15:39:42.395Z,15.57
2022-08-23T15:42:09.131Z,17.55
2022-08-23T15:44:35.786Z,16.10
2022-08-23T15:47:18.439Z,16.92
2022-08-23T15:49:44.963Z,16.48
2022-08-23T15:52:11.502Z,22.77
2022-08-23T15:54:38.101Z,19.17
2022-08-23T15:57:04.978Z,21.20
2022-08-23T15:59:36.153Z,18.90
2022-08-23T16:02:02.969Z,18.65
2022-08-23T16:04:34.936Z,20.65
2022-08-23T16:07:05.601Z,19.15
2022-08-23T16:09:34.312Z,21.75
2022-08-23T16:12:01.762Z,19.08
2022-08-23T16:14:28.476Z,20.17
2022-08-23T16:16:55.092Z,23.95
2022-08-23T16:19:21.674Z,21.10
2022-08-23T16:21:48.823Z,20.33
2022-08-23T16:24:15.332Z,20.85
2022-08-23T16:26:45.306Z,22.55
2022-08-23T16:29:14.694Z,25.90
2022-08-23T16:31:41.774Z,21.25
2022-08-23T16:34:13.469Z,21.73
2022-08-23T16:36:43.986Z,19.95
2022-08-23T16:39:12.580Z,22.23
2022-08-23T16:41:39.520Z,22.10
2022-08-23T16:44:06.185Z,21.95
2022-08-23T16:46:33.087Z,23.23
2022-08-23T16:48:59.620Z,22.65
2022-08-23T16:51:26.214Z,23.73
2022-08-23T16:54:02.232Z,23.38
2022-08-23T16:56:30.956Z,23.60
2022-08-23T16:58:57.824Z,25.73
2022-08-23T17:01:24.379Z,23.30
2022-08-23T17:03:51.364Z,22.75
2022-08-23T17:06:18.217Z,23.02
2022-08-23T17:08:45.209Z,23.48
2022-08-23T17:11:14.743Z,21.83
2022-08-23T17:13:41.333Z,24.02
2022-08-23T17:16:10.568Z,28.30
2022-08-23T17:18:38.487Z,24.17
2022-08-23T17:21:05.772Z,26.55
2022-08-23T17:23:32.477Z,22.35
2022-08-23T17:25:59.664Z,21.90
2022-08-23T17:28:26.433Z,22.60
2022-08-23T17:30:54.732Z,19.63
2022-08-23T17:33:22.327Z,27.30
2022-08-23T17:35:48.983Z,22.45
2022-08-23T17:38:15.721Z,23.80
2022-08-23T17:40:42.655Z,20.98
2022-08-23T17:43:09.663Z,25.80
2022-08-23T17:45:43.864Z,30.58
2022-08-23T17:48:11.369Z,22.58
2022-08-23T17:50:39.386Z,25.77
2022-08-23T17:53:06.647Z,24.67
2022-08-23T17:55:35.090Z,26.95
2022-08-23T17:58:04.011Z,26.15
2022-08-23T18:00:32.447Z,23.85
2022-08-23T18:02:59.906Z,27.30
2022-08-23T18:05:28.030Z,25.60
2022-08-23T18:07:54.613Z,27.23
2022-08-23T18:10:21.464Z,24.13
2022-08-23T18:12:47.963Z,25.40
2022-08-23T18:15:14.600Z,21.90
2022-08-23T18:17:41.183Z,23.20
2022-08-23T18:20:10.685Z,24.65
2022-08-23T18:22:37.760Z,25.92
2022-08-23T18:25:09.175Z,23.33
2022-08-23T18:27:54.958Z,26.30
2022-08-23T18:30:21.757Z,24.60
2022-08-23T18:32:48.374Z,23.35
2022-08-23T18:35:15.056Z,24.35
2022-08-23T18:37:42.128Z,24.38
2022-08-23T18:40:10.263Z,24.13
2022-08-23T18:42:37.218Z,22.75
2022-08-23T18:45:05.516Z,27.45
2022-08-23T18:47:32.051Z,27.23
2022-08-23T18:49:58.560Z,25.67
2022-08-23T18:52:27.132Z,26.17
2022-08-23T18:54:57.438Z,27.63
2022-08-23T18:57:23.959Z,24.58
2022-08-23T18:59:50.477Z,24.70
2022-08-23T19:02:17.694Z,31.35
2022-08-23T19:04:44.446Z,26.20
2022-08-23T19:07:10.951Z,27.80
2022-08-23T19:09:37.526Z,27.38
2022-08-23T19:12:06.549Z,29.05
2022-08-23T19:14:35.751Z,27.35
2022-08-23T19:17:03.795Z,28.92
2022-08-23T19:19:30.720Z,31.42
2022-08-23T19:21:58.415Z,26.73
2022-08-23T19:24:25.447Z,29.55
2022-08-23T19:26:52.613Z,27.00
2022-08-23T19:29:20.611Z,30.55
2022-08-23T19:31:48.605Z,28.92
2022-08-23T19:34:16.745Z,26.05
2022-08-23T19:36:47.066Z,26.55
2022-08-23T19:39:16.755Z,30.58
2022-08-23T19:41:43.797Z,28.92
2022-08-23T19:44:10.931Z,24.90
2022-08-23T19:46:41.871Z,30.55
2022-08-23T19:49:12.125Z,28.40
2022-08-23T19:51:39.635Z,27.75
2022-08-23T19:54:11.328Z,26.38
2022-08-23T19:56:43.332Z,27.05
2022-08-23T19:59:15.152Z,26.85
2022-08-23T20:01:42.243Z,23.85
2022-08-23T20:04:09.007Z,26.95
2022-08-23T20:06:35.716Z,27.42
2022-08-23T20:09:03.008Z,25.67
2022-08-23T20:11:32.030Z,24.33
2022-08-23T20:14:00.179Z,26.60
2022-08-23T20:16:27.511Z,31.17
2022-08-23T20:18:55.333Z,26.13
2022-08-23T20:21:23.628Z,27.08
2022-08-23T20:24:06.661Z,25.90
2022-08-23T20:26:37.316Z,24.20
2022-08-23T20:29:05.177Z,28.33
2022-08-23T20:31:35.805Z,24.13
2022-08-23T20:34:04.561Z,23.90
2022-08-23T20:36:31.763Z,26.90
2022-08-23T20:39:00.138Z,29.00
2022-08-23T20:41:35.722Z,26.42
2022-08-23T20:44:02.727Z,30.92
2022-08-23T20:46:29.814Z,27.65
2022-08-23T20:48:59.747Z,26.23
2022-08-23T20:51:28.494Z,28.45
2022-08-23T20:53:55.971Z,26.95
2022-08-23T20:56:23.474Z,33.30
2022-08-23T20:58:50.877Z,26.38
2022-08-23T21:01:18.665Z,29.50
2022-08-23T21:03:45.613Z,36.05
2022-08-23T21:06:21.868Z,29.50
2022-08-23T21:08:53.625Z,29.17
2022-08-23T21:11:21.910Z,29.45
2022-08-23T21:13:48.782Z,35.97
2022-08-23T21:16:16.666Z,33.10
2022-08-23T21:18:44.007Z,30.65
2022-08-23T21:21:10.872Z,32.13
2022-08-23T21:23:38.070Z,33.97
2022-08-23T21:26:06.428Z,32.70
2022-08-23T21:28:33.415Z,33.92
2022-08-23T21:31:17.281Z,31.42
2022-08-23T21:33:44.680Z,34.38
2022-08-23T21:36:13.626Z,33.45
2022-08-23T21:38:40.186Z,36.22
2022-08-23T21:41:11.310Z,40.70
2022-08-23T21:43:38.765Z,37.08
2022-08-23T21:46:07.253Z,37.80
2022-08-23T21:48:34.408Z,41.20
2022-08-23T21:51:01.348Z,37.55
2022-08-23T21:53:28.013Z,37.00
2022-08-23T21:55:54.550Z,44.83
2022-08-23T21:58:21.154Z,37.60
2022-08-23T22:00:47.894Z,44.70
2022-08-23T22:03:14.562Z,43.97
2022-08-23T22:05:43.294Z,51.78
2022-08-23T22:08:14.458Z,40.67
2022-08-23T22:10:50.126Z,49.90
2022-08-23T22:13:24.821Z,48.72
2022-08-23T22:15:51.352Z,47.03
2022-08-23T22:18:17.882Z,44.90
2022-08-23T22:20:44.432Z,46.45
2022-08-23T22:23:11.416Z,51.40
2022-08-23T22:25:37.966Z,51.70
2022-08-23T22:28:04.646Z,41.60
2022-08-23T22:30:32.257Z,40.72
2022-08-23T22:32:58.856Z,49.45
2022-08-23T22:35:25.530Z,45.67
2022-08-23T22:38:12.910Z,49.40
2022-08-23T22:40:40.143Z,45.72
2022-08-23T22:43:07.719Z,58.83
2022-08-23T22:45:34.327Z,45.78
2022-08-23T22:48:01.180Z,45.42
2022-08-23T22:50:28.038Z,48.80
2022-08-23T22:52:54.551Z,50.05
2022-08-23T22:55:21.572Z,52.05
2022-08-23T22:57:48.140Z,46.50
2022-08-23T23:00:16.208Z,53.13
2022-08-23T23:02:42.914Z,44.17
2022-08-23T23:05:09.578Z,48.78
2022-08-23T23:07:54.761Z,43.13
2022-08-23T23:10:21.261Z,46.40
2022-08-23T23:12:47.846Z,49.72
2022-08-23T23:15:14.353Z,43.22
2022-08-23T23:17:40.921Z,44.05
2022-08-23T23:20:26.448Z,42.60
2022-08-23T23:22:52.955Z,50.47
2022-08-23T23:25:20.022Z,42.67
2022-08-23T23:27:46.571Z,47.10
2022-08-23T23:30:13.413Z,44.90
2022-08-23T23:32:39.895Z,45.60
2022-08-23T23:35:10.643Z,45.80
2022-08-23T23:37:37.738Z,44.30
2022-08-23T23:40:05.908Z,43.75
2022-08-23T23:42:32.700Z,45.97
2022-08-23T23:44:59.228Z,42.60
2022-08-23T23:47:25.768Z,46.03
2022-08-23T23:49:52.473Z,41.30
2022-08-23T23:52:18.996Z,44.63
2022-08-23T23:54:46.265Z,44.05
2022-08-23T23:57:12.799Z,51.50
2022-08-23T23:59:39.941Z,42.85
